This is the latest recevied weather packets stored in our database for station/object EA2KR-10. If no packets are shown the sender has not sent any weather packets the latest 10 day(s).
| Time | Temp. | Humidity | Pressure | Rain* | Wind** | Luminosity | Snow |
|---|---|---|---|---|---|---|---|
| 1788323607 | 22.78° C | 42% | 1033.5 hPa | - | - | - | - |
| 1788321807 | 22.78° C | 41% | 1033.6 hPa | - | - | - | - |
| 1788320007 | 22.78° C | 42% | 1033.6 hPa | - | - | - | - |
| 1788318206 | 22.78° C | 41% | 1033.5 hPa | - | - | - | - |
| 1788316406 | 22.78° C | 42% | 1033.6 hPa | - | - | - | - |
| 1788314606 | 22.78° C | 42% | 1033.5 hPa | - | - | - | - |
| 1788312806 | 23.33° C | 41% | 1033.8 hPa | - | - | - | - |
| 1788311006 | 23.33° C | 41% | 1033.6 hPa | - | - | - | - |
| 1788309206 | 23.89° C | 41% | 1033.6 hPa | - | - | - | - |
| 1788307406 | 23.89° C | 40% | 1033.7 hPa | - | - | - | - |
| 1788305606 | 24.44° C | 40% | 1033.6 hPa | - | - | - | - |
| 1788303806 | 25° C | 39% | 1033.5 hPa | - | - | - | - |
| 1788302006 | 25.56° C | 38% | 1033.4 hPa | - | - | - | - |
| 1788300205 | 25.56° C | 37% | 1033.3 hPa | - | - | - | - |
| 1788298406 | 26.11° C | 37% | 1033.6 hPa | - | - | - | - |
| 1788296605 | 27.22° C | 35% | 1033.6 hPa | - | - | - | - |
| 1788294805 | 28.33° C | 35% | 1033.4 hPa | - | - | - | - |
| 1788293005 | 29.44° C | 33% | 1033.1 hPa | - | - | - | - |
| 1788291205 | 31.11° C | 31% | 1032.7 hPa | - | - | - | - |
| 1788289405 | 32.78° C | 30% | 1032.3 hPa | - | - | - | - |
| 1788287608 | 33.89° C | 29% | 1031.7 hPa | - | - | - | - |
| 1788285808 | 35.56° C | 27% | 1031.5 hPa | - | - | - | - |
| 1788284008 | 37.22° C | 26% | 1031.4 hPa | - | - | - | - |
| 1788282208 | 38.89° C | 25% | 1031 hPa | - | - | - | - |
| 1788280408 | 40.56° C | 24% | 1030.9 hPa | - | - | - | - |
* Rain since midnight (hover to see other rain measurements)
** Current wind speed in m/s (hover to see current wind gust speed)